createdAt,value
2018-03-19T00:01:52.658Z,99.90
2018-03-19T00:04:19.655Z,99.90
2018-03-19T00:06:46.109Z,99.90
2018-03-19T00:09:12.330Z,99.90
2018-03-19T00:11:38.520Z,99.90
2018-03-19T00:14:04.767Z,99.90
2018-03-19T00:16:31.699Z,99.90
2018-03-19T00:18:58.669Z,99.90
2018-03-19T00:21:24.865Z,99.90
2018-03-19T00:23:51.089Z,99.90
2018-03-19T00:26:17.292Z,99.90
2018-03-19T00:28:43.508Z,99.90
2018-03-19T00:31:09.698Z,99.90
2018-03-19T00:33:36.693Z,99.90
2018-03-19T00:36:02.933Z,99.90
2018-03-19T00:38:29.141Z,99.90
2018-03-19T00:40:55.334Z,99.90
2018-03-19T00:43:22.314Z,99.90
2018-03-19T00:45:48.507Z,99.90
2018-03-19T00:48:15.449Z,99.90
2018-03-19T00:50:42.440Z,99.90
2018-03-19T00:53:09.417Z,99.90
2018-03-19T00:55:35.641Z,99.90
2018-03-19T00:58:01.840Z,99.90
2018-03-19T01:00:28.069Z,99.90
2018-03-19T01:02:54.260Z,99.90
2018-03-19T01:05:21.333Z,99.90
2018-03-19T01:07:47.444Z,99.90
2018-03-19T01:10:14.428Z,99.90
2018-03-19T01:12:40.623Z,99.90
2018-03-19T01:15:06.828Z,99.90
2018-03-19T01:17:33.797Z,99.90
2018-03-19T01:19:59.995Z,99.90
2018-03-19T01:22:26.226Z,99.90
2018-03-19T01:24:52.715Z,99.90
2018-03-19T01:27:18.942Z,99.90
2018-03-19T01:29:45.128Z,99.90
2018-03-19T01:32:12.140Z,99.90
2018-03-19T01:34:38.336Z,99.90
2018-03-19T01:37:04.528Z,99.90
2018-03-19T01:39:31.489Z,99.90
2018-03-19T01:41:58.432Z,99.90
2018-03-19T01:44:25.400Z,99.90
2018-03-19T01:46:51.624Z,99.90
2018-03-19T01:49:18.167Z,99.90
2018-03-19T01:51:44.356Z,99.90
2018-03-19T01:54:10.607Z,99.90
2018-03-19T01:56:36.868Z,99.90
2018-03-19T01:59:03.093Z,99.90
2018-03-19T02:01:29.289Z,99.90
2018-03-19T02:03:55.552Z,99.90
2018-03-19T02:06:21.767Z,99.90
2018-03-19T02:08:48.316Z,99.90
2018-03-19T02:11:14.560Z,99.90
2018-03-19T02:13:40.812Z,99.90
2018-03-19T02:16:07.703Z,99.90
2018-03-19T02:18:34.285Z,99.90
2018-03-19T02:21:01.845Z,99.90
2018-03-19T02:23:28.827Z,99.90
2018-03-19T02:25:55.772Z,99.90
2018-03-19T02:28:22.716Z,99.90
2018-03-19T02:30:49.749Z,99.90
2018-03-19T02:33:16.713Z,99.90
2018-03-19T02:35:43.658Z,99.90
2018-03-19T02:38:10.620Z,99.90
2018-03-19T02:40:36.809Z,99.90
2018-03-19T02:43:03.329Z,99.90
2018-03-19T02:45:29.535Z,99.90
2018-03-19T02:47:55.736Z,99.90
2018-03-19T02:50:22.701Z,99.90
2018-03-19T02:52:48.901Z,99.90
2018-03-19T02:55:15.878Z,99.90
2018-03-19T02:57:42.105Z,99.90
2018-03-19T03:00:08.328Z,99.90
2018-03-19T03:02:34.536Z,99.90
2018-03-19T03:05:01.503Z,99.90
2018-03-19T03:07:27.733Z,99.90
2018-03-19T03:09:53.969Z,99.90
2018-03-19T03:12:20.160Z,99.90
2018-03-19T03:14:46.872Z,99.90
2018-03-19T03:17:13.837Z,99.90
2018-03-19T03:19:40.061Z,99.90
2018-03-19T03:22:06.251Z,99.90
2018-03-19T03:24:32.476Z,99.90
2018-03-19T03:26:58.671Z,99.90
2018-03-19T03:29:25.635Z,99.90
2018-03-19T03:31:51.864Z,99.90
2018-03-19T03:34:18.117Z,99.90
2018-03-19T03:36:44.309Z,99.90
2018-03-19T03:39:11.253Z,99.90
2018-03-19T03:41:38.221Z,99.90
2018-03-19T03:44:04.421Z,99.90
2018-03-19T03:46:31.401Z,99.90
2018-03-19T03:48:57.600Z,99.90
2018-03-19T03:51:24.572Z,99.90
2018-03-19T03:53:50.771Z,99.90
2018-03-19T03:56:17.736Z,99.90
2018-03-19T03:58:50.920Z,99.90
2018-03-19T04:01:17.892Z,99.90
2018-03-19T04:03:44.080Z,99.90
2018-03-19T04:06:11.048Z,99.90
2018-03-19T04:08:37.251Z,99.90
2018-03-19T04:11:04.248Z,99.90
2018-03-19T04:13:30.440Z,99.90
2018-03-19T04:15:57.379Z,99.90
2018-03-19T04:18:24.351Z,99.90
2018-03-19T04:20:50.549Z,99.90
2018-03-19T04:23:17.525Z,99.90
2018-03-19T04:25:43.721Z,99.90
2018-03-19T04:28:09.948Z,99.90
2018-03-19T04:30:37.633Z,99.90
2018-03-19T04:33:03.919Z,99.90
2018-03-19T04:35:30.893Z,99.90
2018-03-19T04:37:57.865Z,99.90
2018-03-19T04:40:24.061Z,99.90
2018-03-19T04:42:51.106Z,99.90
2018-03-19T04:45:17.327Z,99.90
2018-03-19T04:47:43.557Z,99.90
2018-03-19T04:50:09.788Z,99.90
2018-03-19T04:52:36.028Z,99.90
2018-03-19T04:55:02.973Z,99.90
2018-03-19T04:57:30.683Z,99.90
2018-03-19T04:59:56.879Z,99.90
2018-03-19T05:02:23.845Z,99.90
2018-03-19T05:04:50.300Z,99.90
2018-03-19T05:07:16.526Z,99.90
2018-03-19T05:09:42.729Z,99.90
2018-03-19T05:12:09.763Z,99.90
2018-03-19T05:14:36.700Z,99.90
2018-03-19T05:17:02.965Z,99.90
2018-03-19T05:19:29.161Z,99.90
2018-03-19T05:21:56.462Z,99.90
2018-03-19T05:24:22.654Z,99.90
2018-03-19T05:26:49.629Z,99.90
2018-03-19T05:29:15.833Z,99.90
2018-03-19T05:31:42.822Z,99.90
2018-03-19T05:34:09.045Z,99.90
2018-03-19T05:36:35.275Z,99.90
2018-03-19T05:39:01.502Z,99.90
2018-03-19T05:41:27.764Z,99.90
2018-03-19T05:43:53.960Z,99.90
2018-03-19T05:46:20.533Z,99.90
2018-03-19T05:48:46.740Z,99.90
2018-03-19T05:51:13.013Z,99.90
2018-03-19T05:53:39.959Z,99.90
2018-03-19T05:56:06.908Z,99.90
2018-03-19T05:58:33.877Z,99.90
2018-03-19T06:01:00.109Z,99.90
2018-03-19T06:03:26.309Z,99.90
2018-03-19T06:05:53.244Z,99.90
2018-03-19T06:08:19.472Z,99.90
2018-03-19T06:10:46.412Z,99.90
2018-03-19T06:13:12.636Z,99.90
2018-03-19T06:15:40.321Z,99.90
2018-03-19T06:18:07.289Z,99.90
2018-03-19T06:20:33.493Z,99.90
2018-03-19T06:23:06.831Z,99.90
2018-03-19T06:25:33.025Z,99.90
2018-03-19T06:27:59.284Z,99.90
2018-03-19T06:30:25.481Z,99.90
2018-03-19T06:32:52.476Z,99.90
2018-03-19T06:35:18.672Z,99.90
2018-03-19T06:37:44.901Z,99.90
2018-03-19T06:40:11.095Z,99.90
2018-03-19T06:42:37.380Z,99.90
2018-03-19T06:45:03.572Z,99.90
2018-03-19T06:47:30.564Z,99.90
2018-03-19T06:49:56.762Z,99.90
2018-03-19T06:52:22.988Z,99.90
2018-03-19T06:54:49.919Z,99.90
2018-03-19T06:57:16.877Z,99.90
2018-03-19T06:59:43.817Z,99.90
2018-03-19T07:02:10.781Z,99.90
2018-03-19T07:04:36.968Z,99.90
2018-03-19T07:07:03.196Z,99.00
2018-03-19T07:09:29.388Z,98.70
2018-03-19T07:11:55.614Z,97.90
2018-03-19T07:14:21.880Z,96.30
2018-03-19T07:16:48.070Z,94.50
2018-03-19T07:19:14.342Z,94.40
2018-03-19T07:21:40.580Z,93.80
2018-03-19T07:24:06.768Z,93.00
2018-03-19T07:26:33.006Z,93.20
2018-03-19T07:28:59.201Z,89.00
2018-03-19T07:31:25.393Z,86.90
2018-03-19T07:33:51.656Z,86.40
2018-03-19T07:36:17.848Z,86.30
2018-03-19T07:38:44.072Z,79.90
2018-03-19T07:41:10.273Z,77.60
2018-03-19T07:43:36.488Z,81.20
2018-03-19T07:46:02.685Z,81.90
2018-03-19T07:48:29.684Z,76.90
2018-03-19T07:50:55.884Z,76.90
2018-03-19T07:53:22.114Z,74.60
2018-03-19T07:55:48.305Z,73.60
2018-03-19T07:58:14.533Z,63.60
2018-03-19T08:00:40.738Z,67.30
2018-03-19T08:03:06.956Z,67.80
2018-03-19T08:05:33.154Z,66.70
2018-03-19T08:07:59.440Z,69.10
2018-03-19T08:10:25.650Z,63.00
2018-03-19T08:12:51.873Z,64.40
2018-03-19T08:15:18.067Z,62.90
2018-03-19T08:17:44.260Z,60.20
2018-03-19T08:20:10.500Z,59.30
2018-03-19T08:22:37.440Z,57.20
2018-03-19T08:25:03.688Z,57.00
2018-03-19T08:27:29.889Z,54.10
2018-03-19T08:29:56.847Z,51.10
2018-03-19T08:32:23.817Z,52.40
2018-03-19T08:34:50.060Z,52.30
2018-03-19T08:37:16.304Z,51.60
2018-03-19T08:39:42.523Z,49.90
2018-03-19T08:42:08.728Z,50.50
2018-03-19T08:44:34.944Z,48.60
2018-03-19T08:47:01.881Z,42.10
2018-03-19T08:49:28.526Z,41.90
2018-03-19T08:51:55.456Z,43.50
2018-03-19T08:54:22.268Z,43.50
2018-03-19T08:56:48.456Z,43.70
2018-03-19T08:59:15.428Z,45.30
2018-03-19T09:01:41.624Z,45.20
2018-03-19T09:04:08.586Z,41.50
2018-03-19T09:06:34.777Z,41.50
2018-03-19T09:09:01.312Z,41.60
2018-03-19T09:11:27.499Z,43.30
2018-03-19T09:13:54.059Z,40.70
2018-03-19T09:16:20.253Z,44.60
2018-03-19T09:18:46.449Z,42.90
2018-03-19T09:21:13.421Z,42.30
2018-03-19T09:23:39.633Z,42.20
2018-03-19T09:26:06.601Z,40.90
2018-03-19T09:28:32.819Z,40.80
2018-03-19T09:30:59.087Z,41.10
2018-03-19T09:33:25.284Z,38.70
2018-03-19T09:35:51.571Z,40.30
2018-03-19T09:38:17.782Z,39.10
2018-03-19T09:40:44.011Z,38.20
2018-03-19T09:43:10.214Z,38.50
2018-03-19T09:45:36.448Z,37.40
2018-03-19T09:48:02.645Z,36.60
2018-03-19T09:50:28.843Z,34.00
2018-03-19T09:52:56.552Z,36.60
2018-03-19T09:55:22.752Z,36.60
2018-03-19T09:57:49.717Z,36.30
2018-03-19T10:00:15.909Z,36.20
2018-03-19T10:02:42.128Z,35.50
2018-03-19T10:05:08.333Z,35.30
2018-03-19T10:07:34.572Z,36.70
2018-03-19T10:10:00.789Z,34.90
2018-03-19T10:12:27.012Z,35.10
2018-03-19T10:14:53.204Z,34.00
2018-03-19T10:17:20.172Z,34.90
2018-03-19T10:19:46.375Z,34.80
2018-03-19T10:22:12.632Z,35.70
2018-03-19T10:24:38.838Z,34.20
2018-03-19T10:27:05.777Z,38.30
2018-03-19T10:29:32.752Z,35.80
2018-03-19T10:31:58.964Z,35.90
2018-03-19T10:34:25.922Z,33.80
2018-03-19T10:36:52.143Z,33.70
2018-03-19T10:39:19.106Z,37.50
2018-03-19T10:41:45.296Z,37.60
2018-03-19T10:44:12.264Z,34.10
2018-03-19T10:46:39.196Z,35.40
2018-03-19T10:49:06.166Z,36.80
2018-03-19T10:51:32.355Z,36.60
2018-03-19T10:53:58.584Z,36.10
2018-03-19T10:56:24.776Z,35.90
2018-03-19T10:58:51.000Z,34.00
2018-03-19T11:01:23.256Z,36.00
2018-03-19T11:03:54.070Z,35.30
2018-03-19T11:09:30.367Z,36.20
2018-03-19T11:11:56.680Z,35.90
2018-03-19T11:14:22.836Z,34.80
2018-03-19T11:16:49.036Z,35.30
2018-03-19T11:19:16.005Z,32.30
2018-03-19T11:21:42.199Z,32.30
2018-03-19T11:24:08.588Z,34.20
2018-03-19T11:26:41.824Z,33.20
2018-03-19T11:29:08.044Z,32.90
2018-03-19T11:31:34.243Z,34.30
2018-03-19T11:34:00.489Z,31.10
2018-03-19T11:36:27.772Z,31.80
2018-03-19T11:38:53.941Z,34.40
2018-03-19T11:41:20.201Z,34.40
2018-03-19T11:43:46.388Z,32.50
2018-03-19T11:46:12.612Z,30.70
2018-03-19T11:48:38.816Z,31.00
2018-03-19T11:51:05.039Z,30.00
2018-03-19T11:53:31.236Z,30.30
2018-03-19T11:55:57.462Z,30.50
2018-03-19T11:58:23.650Z,29.30
2018-03-19T12:00:49.877Z,29.80
2018-03-19T12:03:16.813Z,29.50
2018-03-19T12:05:43.772Z,31.40
2018-03-19T12:08:10.704Z,29.30
2018-03-19T12:10:37.672Z,29.30
2018-03-19T12:13:03.870Z,29.40
2018-03-19T12:15:30.103Z,28.60
2018-03-19T12:17:56.365Z,30.00
2018-03-19T12:20:22.580Z,31.10
2018-03-19T12:22:49.512Z,29.00
2018-03-19T12:25:16.501Z,28.10
2018-03-19T12:27:42.764Z,28.10
2018-03-19T12:30:08.961Z,29.20
2018-03-19T12:32:35.222Z,28.90
2018-03-19T12:35:01.416Z,29.40
2018-03-19T12:37:27.632Z,28.40
2018-03-19T12:39:53.829Z,27.60
2018-03-19T12:42:20.045Z,28.30
2018-03-19T12:44:46.241Z,27.10
2018-03-19T12:47:12.460Z,27.30
2018-03-19T12:49:38.643Z,28.30
2018-03-19T12:52:05.124Z,28.30
2018-03-19T12:54:31.324Z,28.00
2018-03-19T12:56:58.285Z,26.90
2018-03-19T12:59:24.475Z,26.90
2018-03-19T13:01:50.691Z,26.50
2018-03-19T13:04:16.883Z,27.20
2018-03-19T13:06:43.108Z,26.80
2018-03-19T13:09:09.321Z,26.30
2018-03-19T13:11:35.537Z,26.80
2018-03-19T13:14:02.508Z,27.70
2018-03-19T13:16:28.707Z,27.70
2018-03-19T13:18:55.680Z,25.90
2018-03-19T13:21:21.878Z,25.90
2018-03-19T13:23:48.869Z,26.90
2018-03-19T13:26:15.056Z,26.40
2018-03-19T13:28:42.021Z,27.70
2018-03-19T13:31:08.301Z,27.70
2018-03-19T13:33:34.532Z,26.40
2018-03-19T13:36:00.732Z,27.00
2018-03-19T13:38:26.947Z,26.70
2018-03-19T13:40:53.140Z,26.50
2018-03-19T13:43:19.364Z,26.30
2018-03-19T13:45:45.570Z,27.10
2018-03-19T13:48:11.801Z,25.40
2018-03-19T13:50:38.008Z,26.60
2018-03-19T13:53:04.235Z,26.60
2018-03-19T13:55:30.448Z,26.90
2018-03-19T13:57:56.717Z,25.90
2018-03-19T14:00:22.908Z,25.20
2018-03-19T14:02:49.144Z,26.70
2018-03-19T14:05:15.341Z,27.20
2018-03-19T14:07:42.312Z,26.50
2018-03-19T14:10:08.503Z,26.30
2018-03-19T14:12:34.726Z,27.10
2018-03-19T14:15:00.915Z,26.50
2018-03-19T14:17:27.128Z,28.20
2018-03-19T14:19:53.327Z,28.10
2018-03-19T14:22:20.655Z,27.00
2018-03-19T14:24:46.843Z,27.00
2018-03-19T14:27:16.026Z,27.00
2018-03-19T14:29:42.245Z,27.20
2018-03-19T14:32:09.184Z,27.30
2018-03-19T14:34:36.158Z,27.80
2018-03-19T14:37:02.477Z,27.80
2018-03-19T14:39:28.754Z,27.60
2018-03-19T14:41:54.926Z,27.10
2018-03-19T14:44:21.884Z,27.60
2018-03-19T14:46:48.080Z,27.60
2018-03-19T14:49:14.305Z,27.60
2018-03-19T14:51:41.984Z,26.90
2018-03-19T14:54:08.952Z,28.50
2018-03-19T14:56:35.136Z,28.50
2018-03-19T14:59:02.847Z,28.50
2018-03-19T15:01:29.045Z,28.40
2018-03-19T15:03:56.016Z,27.60
2018-03-19T15:06:22.226Z,27.60
2018-03-19T15:08:49.193Z,27.30
2018-03-19T15:11:15.388Z,27.20
2018-03-19T15:13:42.360Z,28.30
2018-03-19T15:16:08.569Z,27.90
2018-03-19T15:18:34.853Z,28.40
2018-03-19T15:21:01.383Z,26.70
2018-03-19T15:23:27.605Z,27.00
2018-03-19T15:25:53.830Z,27.20
2018-03-19T15:28:20.057Z,28.70
2018-03-19T15:30:46.267Z,28.80
2018-03-19T15:33:12.500Z,28.20
2018-03-19T15:35:39.463Z,27.80
2018-03-19T15:38:05.688Z,27.80
2018-03-19T15:40:31.936Z,27.30
2018-03-19T15:42:58.165Z,28.30
2018-03-19T15:45:24.376Z,28.50
2018-03-19T15:47:50.604Z,27.80
2018-03-19T15:50:16.812Z,29.50
2018-03-19T15:52:43.744Z,29.00
2018-03-19T15:55:10.003Z,29.00
2018-03-19T15:57:36.288Z,28.80
2018-03-19T16:00:03.268Z,30.20
2018-03-19T16:02:30.226Z,30.80
2018-03-19T16:04:56.449Z,30.80
2018-03-19T16:07:23.395Z,30.70
2018-03-19T16:09:50.839Z,30.60
2018-03-19T16:12:17.800Z,31.80
2018-03-19T16:14:44.763Z,32.50
2018-03-19T16:17:10.970Z,32.50
2018-03-19T16:19:37.198Z,33.30
2018-03-19T16:22:04.160Z,34.80
2018-03-19T16:24:30.393Z,34.70
2018-03-19T16:26:56.589Z,33.90
2018-03-19T16:29:23.724Z,35.10
2018-03-19T16:31:50.010Z,35.10
2018-03-19T16:34:16.228Z,34.90
2018-03-19T16:36:42.436Z,35.30
2018-03-19T16:39:09.400Z,37.00
2018-03-19T16:41:35.597Z,36.90
2018-03-19T16:44:01.813Z,37.80
2018-03-19T16:46:28.005Z,38.90
2018-03-19T16:48:54.224Z,38.90
2018-03-19T16:51:20.441Z,39.50
2018-03-19T16:53:46.741Z,39.50
2018-03-19T16:56:12.956Z,41.90
2018-03-19T16:58:39.180Z,44.00
2018-03-19T17:01:05.687Z,47.30
2018-03-19T17:03:31.913Z,51.80
2018-03-19T17:05:58.126Z,56.10
2018-03-19T17:08:24.348Z,61.80
2018-03-19T17:10:51.285Z,81.30
2018-03-19T17:13:18.253Z,90.40
2018-03-19T17:15:44.444Z,90.40
2018-03-19T17:18:10.682Z,93.50
2018-03-19T17:20:37.616Z,98.70
2018-03-19T17:23:03.831Z,98.70
2018-03-19T17:25:30.049Z,99.90
2018-03-19T17:27:56.239Z,99.90
2018-03-19T17:30:22.490Z,99.90
2018-03-19T17:32:48.729Z,99.90
2018-03-19T17:35:14.953Z,99.90
2018-03-19T17:37:41.149Z,99.90
2018-03-19T17:40:07.369Z,99.90
2018-03-19T17:42:34.305Z,99.90
2018-03-19T17:45:01.272Z,99.90
2018-03-19T17:47:27.548Z,99.90
2018-03-19T17:49:53.773Z,99.90
2018-03-19T17:52:19.971Z,99.90
2018-03-19T17:54:46.576Z,99.90
2018-03-19T17:57:13.504Z,99.90
2018-03-19T17:59:39.737Z,99.90
2018-03-19T18:02:05.935Z,99.90
2018-03-19T18:04:32.210Z,99.90
2018-03-19T18:06:58.413Z,99.90
2018-03-19T18:09:24.640Z,99.90
2018-03-19T18:11:50.864Z,99.90
2018-03-19T18:14:17.088Z,99.90
2018-03-19T18:16:43.289Z,99.90
2018-03-19T18:19:09.514Z,99.90
2018-03-19T18:21:35.704Z,99.90
2018-03-19T18:24:01.933Z,99.90
2018-03-19T18:26:28.128Z,99.90
2018-03-19T18:28:54.357Z,99.90
2018-03-19T18:31:20.577Z,99.90
2018-03-19T18:33:46.796Z,99.90
2018-03-19T18:36:13.018Z,99.90
2018-03-19T18:38:39.245Z,99.90
2018-03-19T18:41:05.441Z,99.90
2018-03-19T18:43:32.409Z,99.90
2018-03-19T18:45:58.672Z,99.90
2018-03-19T18:48:24.956Z,99.90
2018-03-19T18:50:51.888Z,99.90
2018-03-19T18:53:18.143Z,99.90
2018-03-19T18:55:44.368Z,99.90
2018-03-19T18:58:11.305Z,99.90
2018-03-19T19:00:38.284Z,99.90
2018-03-19T19:03:04.477Z,99.90
2018-03-19T19:05:31.444Z,99.90
2018-03-19T19:07:57.641Z,99.90
2018-03-19T19:10:23.863Z,99.90
2018-03-19T19:12:50.061Z,99.90
2018-03-19T19:15:16.385Z,99.90
2018-03-19T19:17:42.576Z,99.90
2018-03-19T19:20:09.549Z,99.90
2018-03-19T19:22:35.786Z,99.90
2018-03-19T19:25:02.014Z,99.90
2018-03-19T19:27:28.268Z,99.90
2018-03-19T19:29:54.600Z,99.90
2018-03-19T19:32:20.796Z,99.90
2018-03-19T19:34:47.023Z,99.90
2018-03-19T19:37:13.232Z,99.90
2018-03-19T19:39:40.205Z,99.90
2018-03-19T19:42:06.392Z,99.90
2018-03-19T19:44:33.348Z,99.90
2018-03-19T19:47:00.298Z,99.90
2018-03-19T19:49:26.544Z,99.90
2018-03-19T19:51:52.732Z,99.90
2018-03-19T19:54:18.933Z,99.90
2018-03-19T19:56:45.153Z,99.90
2018-03-19T19:59:11.371Z,99.90
2018-03-19T20:01:37.604Z,99.90
2018-03-19T20:04:03.798Z,99.90
2018-03-19T20:06:30.028Z,99.90
2018-03-19T20:08:56.968Z,99.90
2018-03-19T20:11:23.200Z,99.90
2018-03-19T20:13:50.130Z,99.90
2018-03-19T20:16:17.097Z,99.90
2018-03-19T20:18:44.029Z,99.90
2018-03-19T20:21:10.264Z,99.90
2018-03-19T20:23:37.196Z,99.90
2018-03-19T20:26:04.160Z,99.90
2018-03-19T20:28:31.088Z,99.90
2018-03-19T20:30:57.345Z,99.90
2018-03-19T20:33:23.536Z,99.90
2018-03-19T20:35:49.757Z,99.90
2018-03-19T20:38:17.508Z,99.90
2018-03-19T20:40:43.733Z,99.90
2018-03-19T20:43:09.934Z,99.90
2018-03-19T20:45:36.162Z,99.90
2018-03-19T20:48:02.368Z,99.90
2018-03-19T20:50:28.943Z,99.90
2018-03-19T20:52:55.144Z,99.90
2018-03-19T20:55:21.363Z,99.90
2018-03-19T20:57:48.300Z,99.90
2018-03-19T21:00:15.279Z,99.90
2018-03-19T21:02:41.476Z,99.90
2018-03-19T21:05:08.467Z,99.90
2018-03-19T21:07:34.663Z,99.90
2018-03-19T21:10:00.865Z,99.90
2018-03-19T21:12:27.832Z,99.90
2018-03-19T21:14:54.764Z,99.90
2018-03-19T21:17:20.985Z,99.90
2018-03-19T21:19:47.176Z,99.90
2018-03-19T21:22:13.388Z,99.90
2018-03-19T21:24:39.588Z,99.90
2018-03-19T21:27:06.552Z,99.90
2018-03-19T21:29:32.766Z,99.90
2018-03-19T21:31:59.764Z,99.90
2018-03-19T21:34:26.340Z,99.90
2018-03-19T21:36:53.312Z,99.90
2018-03-19T21:39:19.503Z,99.90
2018-03-19T21:41:45.747Z,99.90
2018-03-19T21:44:12.679Z,99.90
2018-03-19T21:46:38.922Z,99.90
2018-03-19T21:49:05.868Z,99.90
2018-03-19T21:51:32.864Z,99.90
2018-03-19T21:53:59.060Z,99.90
2018-03-19T21:56:25.988Z,99.90
2018-03-19T21:58:52.956Z,99.90
2018-03-19T22:01:19.184Z,99.90
2018-03-19T22:03:45.384Z,99.90
2018-03-19T22:06:11.606Z,99.90
2018-03-19T22:08:38.103Z,99.90
2018-03-19T22:11:04.324Z,99.90
2018-03-19T22:13:30.529Z,99.90
2018-03-19T22:15:57.501Z,99.90
2018-03-19T22:18:23.712Z,99.90
2018-03-19T22:20:49.904Z,99.90
2018-03-19T22:23:17.616Z,99.90
2018-03-19T22:25:43.873Z,99.90
2018-03-19T22:28:10.068Z,99.90
2018-03-19T22:30:36.257Z,99.90
2018-03-19T22:33:02.519Z,99.90
2018-03-19T22:35:28.720Z,99.90
2018-03-19T22:37:54.975Z,99.90
2018-03-19T22:40:21.176Z,99.90
2018-03-19T22:42:48.147Z,99.90
2018-03-19T22:45:14.355Z,99.90
2018-03-19T22:47:41.320Z,99.90
2018-03-19T22:50:08.257Z,99.90
2018-03-19T22:52:35.355Z,99.90
2018-03-19T22:55:01.548Z,99.90
2018-03-19T22:57:28.780Z,99.90
2018-03-19T22:59:55.748Z,99.90
2018-03-19T23:02:21.967Z,99.90
2018-03-19T23:05:01.277Z,99.90
2018-03-19T23:07:28.241Z,99.90
2018-03-19T23:09:55.185Z,99.90
2018-03-19T23:12:22.148Z,99.90
2018-03-19T23:14:49.092Z,99.90
2018-03-19T23:17:16.049Z,99.90
2018-03-19T23:19:42.247Z,99.90
2018-03-19T23:22:09.220Z,99.90
2018-03-19T23:24:35.452Z,99.90
2018-03-19T23:27:01.837Z,99.90
2018-03-19T23:29:28.024Z,99.90
2018-03-19T23:31:54.240Z,99.90
2018-03-19T23:34:20.460Z,99.90
2018-03-19T23:36:47.393Z,99.90
2018-03-19T23:39:14.365Z,99.90
2018-03-19T23:41:40.564Z,99.90
2018-03-19T23:44:06.784Z,99.90
2018-03-19T23:46:32.976Z,99.90
2018-03-19T23:48:59.200Z,99.90
2018-03-19T23:51:25.393Z,99.90
2018-03-19T23:53:52.356Z,99.90
2018-03-19T23:56:18.556Z,99.90
2018-03-19T23:58:45.525Z,99.90
